Time;durP1;ratioP1;P1;durP2;ratioP2;P2;SDS_P1;SDS_P2;PMS_P1;PMS_P2;Temp;Humidity;BMP_temperature;BMP_pressure;BME280_temperature;BME280_humidity;BME280_pressure;Samples;Min_cycle;Max_cycle;Signal;HPM_P1;HPM_P2
2022/03/27 00:01:23;;;;;;;;;;;;;;;8.13;83.32;103189.38;5096063;28;20313;-75
2022/03/27 00:03:48;;;;;;;;;;;;;;;8.14;77.89;103192.06;5104240;28;19963;-76
2022/03/27 00:06:13;;;;;;;;;;;;;;;8.07;81.73;103185.59;5101253;28;19928;-76
2022/03/27 00:08:38;;;;;;;;;;;;;;;8.10;82.47;103181.47;5106165;28;19934;-74
2022/03/27 00:13:48;;;;;;;;;;;;;;;8.03;84.01;103195.50;5109292;28;19974;-75
2022/03/27 00:16:13;;;;;;;;;;;;;;;7.97;79.76;103185.69;5107416;28;19963;-75
2022/03/27 00:18:41;;;;;;;;;;;;;;;7.94;80.19;103187.09;5111454;27;20757;-75
2022/03/27 00:21:06;;;;;;;;;;;;;;;7.91;81.44;103190.34;5110841;28;19973;-76
2022/03/27 00:23:31;;;;;;;;;;;;;;;7.88;76.15;103189.19;5109119;28;19915;-76
2022/03/27 00:25:57;;;;;;;;;;;;;;;7.85;79.23;103186.41;5108124;28;20015;-75
2022/03/27 00:28:22;;;;;;;;;;;;;;;7.82;77.51;103184.50;5106253;28;19979;-75
2022/03/27 00:30:47;;;;;;;;;;;;;;;7.80;80.44;103183.50;5107042;28;19928;-76
2022/03/27 00:33:13;;;;;;;;;;;;;;;7.78;79.14;103185.06;5103680;28;19920;-76
2022/03/27 00:35:38;;;;;;;;;;;;;;;7.77;80.13;103183.28;5107026;28;19920;-76
2022/03/27 00:38:03;;;;;;;;;;;;;;;7.73;81.17;103183.81;5106472;28;19932;-76
2022/03/27 00:40:29;;;;;;;;;;;;;;;7.69;82.73;103190.34;5106738;28;20014;-76
2022/03/27 00:42:54;;;;;;;;;;;;;;;7.68;82.34;103190.25;5104932;28;20375;-75
2022/03/27 00:45:20;;;;;;;;;;;;;;;7.64;83.11;103190.78;5104730;28;20002;-74
2022/03/27 00:47:45;;;;;;;;;;;;;;;7.60;83.31;103192.22;5108021;28;19920;-75
2022/03/27 00:50:10;;;;;;;;;;;;;;;7.56;86.28;103189.31;5108325;28;19931;-75
2022/03/27 00:52:36;;;;;;;;;;;;;;;7.53;85.49;103187.41;5107698;28;19953;-75
2022/03/27 00:55:01;;;;;;;;;;;;;;;7.49;83.48;103187.94;5107710;28;19959;-74
2022/03/27 00:57:27;;;;;;;;;;;;;;;7.47;85.84;103184.38;5107138;28;19959;-75
2022/03/27 00:59:52;;;;;;;;;;;;;;;7.41;85.09;103183.91;5107033;28;19920;-75
2022/03/27 01:02:20;;;;;;;;;;;;;;;7.37;84.55;103190.44;5108107;28;19963;-75
2022/03/27 01:04:45;;;;;;;;;;;;;;;7.35;84.03;103189.44;5104203;28;19916;-75
2022/03/27 01:07:12;;;;;;;;;;;;;;;7.32;83.68;103190.84;5107945;28;19916;-75
2022/03/27 01:09:38;;;;;;;;;;;;;;;7.29;82.30;103182.94;5105993;28;19924;-75
2022/03/27 01:12:07;;;;;;;;;;;;;;;7.24;85.49;103185.13;5109442;28;19943;-74
2022/03/27 01:14:33;;;;;;;;;;;;;;;7.21;83.32;103180.66;5103344;28;19926;-75
2022/03/27 01:17:07;;;;;;;;;;;;;;;7.16;83.98;103176.88;5109587;28;19926;-76
2022/03/27 01:19:33;;;;;;;;;;;;;;;7.15;84.74;103186.94;5106588;28;19916;-75
2022/03/27 01:22:00;;;;;;;;;;;;;;;7.11;85.54;103190.06;5106522;28;19984;-75
2022/03/27 01:24:26;;;;;;;;;;;;;;;7.08;86.28;103185.56;5106636;28;19920;-75
2022/03/27 01:26:51;;;;;;;;;;;;;;;7.03;85.58;103181.75;5106397;28;20008;-75
2022/03/27 01:29:17;;;;;;;;;;;;;;;7.00;84.76;103181.53;5107502;28;20290;-74
2022/03/27 01:31:42;;;;;;;;;;;;;;;6.96;81.84;103176.94;5110161;28;20279;-75
2022/03/27 01:34:08;;;;;;;;;;;;;;;6.95;85.27;103183.72;5112282;28;20409;-75
2022/03/27 01:36:36;;;;;;;;;;;;;;;6.91;84.34;103181.69;5110397;28;20294;-75
2022/03/27 01:39:06;;;;;;;;;;;;;;;6.88;86.40;103180.56;5105178;28;19999;-75
2022/03/27 01:41:32;;;;;;;;;;;;;;;6.83;85.71;103181.84;5109012;28;20278;-75
2022/03/27 01:43:59;;;;;;;;;;;;;;;6.81;85.31;103185.97;5108152;28;19923;-75
2022/03/27 01:46:25;;;;;;;;;;;;;;;6.79;90.75;103178.13;5108596;28;19916;-76
2022/03/27 01:48:50;;;;;;;;;;;;;;;6.81;90.65;103184.28;5107765;28;20064;-74
2022/03/27 01:51:16;;;;;;;;;;;;;;;6.86;86.38;103177.00;5111871;28;20019;-75
2022/03/27 01:53:41;;;;;;;;;;;;;;;6.92;86.48;103173.25;5111453;28;19927;-76
2022/03/27 01:56:07;;;;;;;;;;;;;;;6.97;89.08;103177.03;5106263;28;20001;-76
2022/03/27 01:58:36;;;;;;;;;;;;;;;7.02;88.70;103179.09;5109593;28;19930;-76
2022/03/27 02:01:01;;;;;;;;;;;;;;;7.09;90.68;103176.25;5109894;28;19991;-76
2022/03/27 02:03:28;;;;;;;;;;;;;;;7.14;84.78;103165.59;5103554;28;20058;-75
2022/03/27 02:05:54;;;;;;;;;;;;;;;7.22;85.07;103179.91;5111016;28;19920;-75
2022/03/27 02:08:19;;;;;;;;;;;;;;;7.33;93.23;103178.16;5107632;28;19916;-74
2022/03/27 02:10:44;;;;;;;;;;;;;;;7.40;97.59;103172.78;5103175;28;20374;-75
2022/03/27 02:13:14;;;;;;;;;;;;;;;7.35;99.63;103180.88;5111617;28;20313;-75
2022/03/27 02:15:39;;;;;;;;;;;;;;;7.30;100.00;103177.94;5111579;28;20698;-76
2022/03/27 02:18:04;;;;;;;;;;;;;;;7.29;100.00;103181.28;5111001;28;20032;-76
2022/03/27 02:20:29;;;;;;;;;;;;;;;7.31;98.76;103178.81;5102116;28;19928;-76
2022/03/27 02:22:55;;;;;;;;;;;;;;;7.36;98.95;103178.41;5098467;28;19919;-76
2022/03/27 02:25:20;;;;;;;;;;;;;;;7.37;98.53;103174.19;5107877;28;19923;-75
2022/03/27 02:27:46;;;;;;;;;;;;;;;7.41;98.53;103182.22;5110768;28;19920;-76
2022/03/27 02:30:11;;;;;;;;;;;;;;;7.43;96.33;103180.66;5104505;28;20010;-76
2022/03/27 02:32:37;;;;;;;;;;;;;;;7.46;99.98;103185.13;5100035;28;20411;-75
2022/03/27 02:35:02;;;;;;;;;;;;;;;7.46;99.88;103183.50;5104875;28;19920;-75
2022/03/27 02:37:28;;;;;;;;;;;;;;;7.45;100.00;103178.22;5107335;28;19920;-75
2022/03/27 02:39:53;;;;;;;;;;;;;;;7.47;96.42;103181.81;5107967;28;19916;-76
2022/03/27 02:42:18;;;;;;;;;;;;;;;7.50;94.84;103177.81;5105242;28;19920;-76
2022/03/27 02:44:44;;;;;;;;;;;;;;;7.55;94.15;103178.16;5108549;28;20358;-76
2022/03/27 02:47:09;;;;;;;;;;;;;;;7.58;93.21;103174.94;5110570;28;19964;-77
2022/03/27 02:49:34;;;;;;;;;;;;;;;7.61;94.76;103173.53;5108859;28;19920;-76
2022/03/27 02:51:59;;;;;;;;;;;;;;;7.64;90.60;103177.97;5106696;28;19920;-76
2022/03/27 02:54:25;;;;;;;;;;;;;;;7.63;93.16;103177.09;5105794;28;19912;-76
2022/03/27 02:56:50;;;;;;;;;;;;;;;7.64;90.91;103177.97;5105458;28;19988;-75
2022/03/27 02:59:16;;;;;;;;;;;;;;;7.66;90.66;103173.88;5110470;27;19916;-74
2022/03/27 03:01:41;;;;;;;;;;;;;;;7.67;92.23;103181.66;5109569;28;19924;-75
2022/03/27 03:04:07;;;;;;;;;;;;;;;7.69;95.38;103181.78;5108736;28;19931;-75
2022/03/27 03:06:33;;;;;;;;;;;;;;;7.67;96.20;103174.00;5114361;28;19998;-74
2022/03/27 03:08:58;;;;;;;;;;;;;;;7.68;96.18;103172.31;5125014;28;19915;-74
2022/03/27 03:11:24;;;;;;;;;;;;;;;7.65;96.70;103170.44;5115247;28;19910;-75
2022/03/27 03:13:52;;;;;;;;;;;;;;;7.63;97.98;103169.41;5114887;28;19962;-75
2022/03/27 03:16:19;;;;;;;;;;;;;;;7.60;99.75;103175.97;5109890;28;19958;-75
2022/03/27 03:18:44;;;;;;;;;;;;;;;7.57;98.78;103166.38;5110975;28;19919;-75
2022/03/27 03:21:10;;;;;;;;;;;;;;;7.61;97.16;103170.06;5104018;28;19920;-74
2022/03/27 03:23:36;;;;;;;;;;;;;;;7.63;96.10;103165.94;5109845;28;19974;-75
2022/03/27 03:26:01;;;;;;;;;;;;;;;7.65;95.55;103156.75;5107364;28;19923;-74
2022/03/27 03:28:26;;;;;;;;;;;;;;;7.68;94.17;103159.50;5107194;28;20278;-75
2022/03/27 03:30:52;;;;;;;;;;;;;;;7.69;94.39;103157.06;5109846;28;19920;-75
2022/03/27 03:33:18;;;;;;;;;;;;;;;7.74;95.33;103154.84;5109648;28;19916;-75
2022/03/27 03:35:43;;;;;;;;;;;;;;;7.75;94.92;103154.97;5109001;28;20516;-75
2022/03/27 03:38:09;;;;;;;;;;;;;;;7.73;98.37;103160.75;5108980;28;19970;-75
2022/03/27 03:40:35;;;;;;;;;;;;;;;7.68;99.50;103156.97;5108506;28;20467;-75
2022/03/27 03:43:00;;;;;;;;;;;;;;;7.66;97.99;103158.50;5104201;28;20362;-75
2022/03/27 03:45:26;;;;;;;;;;;;;;;7.68;97.54;103151.84;5106503;28;19924;-76
2022/03/27 03:47:51;;;;;;;;;;;;;;;7.70;92.60;103150.28;5106063;28;19919;-75
2022/03/27 03:50:16;;;;;;;;;;;;;;;7.71;95.64;103152.97;5106096;28;19924;-75
2022/03/27 03:52:41;;;;;;;;;;;;;;;7.70;95.92;103147.72;5102230;28;19984;-75
2022/03/27 03:55:07;;;;;;;;;;;;;;;7.69;96.89;103154.50;5099265;28;19931;-75
2022/03/27 03:57:32;;;;;;;;;;;;;;;7.67;99.14;103155.19;5104135;28;20017;-75
2022/03/27 03:59:59;;;;;;;;;;;;;;;7.58;100.00;103154.47;5103330;28;19953;-75
2022/03/27 04:02:24;;;;;;;;;;;;;;;7.49;100.00;103152.09;5105106;28;19915;-75
2022/03/27 04:04:49;;;;;;;;;;;;;;;7.49;100.00;103154.66;5108583;28;20131;-75
2022/03/27 04:07:15;;;;;;;;;;;;;;;7.41;100.00;103160.88;5109721;28;19924;-76
2022/03/27 04:09:40;;;;;;;;;;;;;;;7.37;100.00;103167.41;5107249;28;20377;-74
2022/03/27 04:12:05;;;;;;;;;;;;;;;7.29;100.00;103155.69;5109403;28;19924;-74
2022/03/27 04:14:34;;;;;;;;;;;;;;;7.30;100.00;103154.91;5104984;28;19920;-75
2022/03/27 04:17:00;;;;;;;;;;;;;;;7.39;99.49;103162.38;5108028;28;20049;-75
2022/03/27 04:19:25;;;;;;;;;;;;;;;7.43;100.00;103165.31;5108743;28;20370;-74
2022/03/27 04:21:51;;;;;;;;;;;;;;;7.39;100.00;103163.28;5105522;28;19916;-75
2022/03/27 04:24:16;;;;;;;;;;;;;;;7.36;100.00;103152.81;5109933;28;19923;-75
2022/03/27 04:26:41;;;;;;;;;;;;;;;7.35;100.00;103161.28;5108771;28;19915;-75
2022/03/27 04:29:07;;;;;;;;;;;;;;;7.38;100.00;103158.94;5109588;28;19965;-75
2022/03/27 04:31:32;;;;;;;;;;;;;;;7.38;100.00;103158.94;5106204;28;19924;-75
2022/03/27 04:33:58;;;;;;;;;;;;;;;7.40;100.00;103159.97;5103973;28;20002;-75
2022/03/27 04:36:23;;;;;;;;;;;;;;;7.42;100.00;103153.28;5109183;28;19927;-76
2022/03/27 04:38:49;;;;;;;;;;;;;;;7.44;100.00;103161.09;5107319;28;19969;-75
2022/03/27 04:41:14;;;;;;;;;;;;;;;7.44;100.00;103163.66;5108263;28;20309;-76
2022/03/27 04:43:39;;;;;;;;;;;;;;;7.39;100.00;103160.72;5109253;28;19923;-75
2022/03/27 04:46:07;;;;;;;;;;;;;;;7.36;100.00;103162.16;5108190;28;19924;-75
2022/03/27 04:48:32;;;;;;;;;;;;;;;7.34;100.00;103159.50;5106246;28;20236;-75
2022/03/27 04:50:57;;;;;;;;;;;;;;;7.41;97.23;103164.31;5105430;28;19953;-76
2022/03/27 04:53:22;;;;;;;;;;;;;;;7.40;100.00;103167.66;5104704;28;20278;-76
2022/03/27 04:55:49;;;;;;;;;;;;;;;7.30;100.00;103170.25;5109298;28;19924;-74
2022/03/27 04:58:15;;;;;;;;;;;;;;;7.13;100.00;103162.94;5107941;28;19915;-75
2022/03/27 05:00:41;;;;;;;;;;;;;;;7.05;100.00;103169.13;5107944;28;19992;-75
2022/03/27 05:03:06;;;;;;;;;;;;;;;7.06;100.00;103169.22;5106987;28;20620;-74
2022/03/27 05:05:32;;;;;;;;;;;;;;;7.11;100.00;103172.16;5110685;28;20382;-76
2022/03/27 05:07:58;;;;;;;;;;;;;;;7.17;100.00;103181.22;5107907;28;19920;-75
2022/03/27 05:10:24;;;;;;;;;;;;;;;7.21;100.00;103185.78;5112940;28;20035;-76
2022/03/27 05:12:49;;;;;;;;;;;;;;;7.25;100.00;103176.69;5111453;28;20047;-76
2022/03/27 05:15:14;;;;;;;;;;;;;;;7.30;100.00;103172.81;5109105;28;20019;-76
2022/03/27 05:17:46;;;;;;;;;;;;;;;7.36;97.19;103174.97;5112351;28;19920;-76
2022/03/27 05:20:12;;;;;;;;;;;;;;;7.38;97.20;103175.97;5110955;28;19916;-76
2022/03/27 05:22:37;;;;;;;;;;;;;;;7.43;95.26;103180.66;5109942;28;19931;-76
2022/03/27 05:25:03;;;;;;;;;;;;;;;7.44;96.04;103174.78;5107664;28;20433;-76
2022/03/27 05:27:28;;;;;;;;;;;;;;;7.47;99.92;103186.94;5109993;28;19915;-76
2022/03/27 05:29:53;;;;;;;;;;;;;;;7.29;100.00;103186.41;5109431;28;20420;-76
2022/03/27 05:32:18;;;;;;;;;;;;;;;7.12;100.00;103189.28;5111029;28;19927;-75
2022/03/27 05:34:44;;;;;;;;;;;;;;;7.01;100.00;103185.88;5111229;28;20370;-75
2022/03/27 05:37:09;;;;;;;;;;;;;;;6.90;100.00;103184.13;5110894;28;19920;-75
2022/03/27 05:39:35;;;;;;;;;;;;;;;6.85;100.00;103177.75;5111998;28;19938;-75
2022/03/27 05:42:00;;;;;;;;;;;;;;;6.82;100.00;103185.19;5111189;28;19919;-76
2022/03/27 05:44:25;;;;;;;;;;;;;;;6.81;100.00;103184.28;5108730;28;19920;-76
2022/03/27 05:46:51;;;;;;;;;;;;;;;6.82;100.00;103186.06;5104082;28;20313;-75
2022/03/27 05:49:16;;;;;;;;;;;;;;;6.83;100.00;103192.97;5104736;28;19919;-75
2022/03/27 05:51:41;;;;;;;;;;;;;;;6.82;100.00;103185.19;5107566;28;19920;-76
2022/03/27 05:54:08;;;;;;;;;;;;;;;6.80;100.00;103196.97;5111317;28;21569;-76
2022/03/27 05:56:34;;;;;;;;;;;;;;;6.74;100.00;103201.59;5106877;28;19969;-75
2022/03/27 05:58:59;;;;;;;;;;;;;;;6.75;100.00;103204.25;5110853;28;19943;-76
2022/03/27 06:01:24;;;;;;;;;;;;;;;6.75;100.00;103205.91;5111126;28;19977;-76
2022/03/27 06:03:49;;;;;;;;;;;;;;;6.71;100.00;103207.31;5109831;28;19950;-76
2022/03/27 06:06:15;;;;;;;;;;;;;;;6.76;100.00;103208.59;5109838;28;20441;-75
2022/03/27 06:08:40;;;;;;;;;;;;;;;6.88;100.00;103209.59;5117746;28;19900;-75
2022/03/27 06:11:05;;;;;;;;;;;;;;;6.96;100.00;103212.75;5112735;28;19985;-76
2022/03/27 06:13:30;;;;;;;;;;;;;;;6.98;99.95;103209.56;5106157;28;20232;-76
2022/03/27 06:15:55;;;;;;;;;;;;;;;7.05;99.00;103216.06;5112355;28;20286;-76
2022/03/27 06:18:21;;;;;;;;;;;;;;;7.09;98.94;103212.94;5105133;28;19916;-75
2022/03/27 06:20:46;;;;;;;;;;;;;;;7.16;96.91;103222.00;5110234;28;19969;-75
2022/03/27 06:23:13;;;;;;;;;;;;;;;7.20;97.01;103224.94;5108137;28;20018;-75
2022/03/27 06:25:38;;;;;;;;;;;;;;;7.23;97.34;103227.75;5114891;27;19924;-75
2022/03/27 06:28:04;;;;;;;;;;;;;;;7.27;97.94;103223.75;5112669;27;19916;-76
2022/03/27 06:30:30;;;;;;;;;;;;;;;7.28;97.63;103223.00;5110821;28;19924;-74
2022/03/27 06:32:55;;;;;;;;;;;;;;;7.30;97.01;103223.13;5111894;28;19927;-75
2022/03/27 06:35:22;;;;;;;;;;;;;;;7.34;96.63;103220.91;5109689;27;19920;-74
2022/03/27 06:37:48;;;;;;;;;;;;;;;7.38;97.66;103229.72;5108268;28;20313;-76
2022/03/27 06:40:14;;;;;;;;;;;;;;;7.27;98.70;103226.31;5108452;27;19920;-75
2022/03/27 06:42:39;;;;;;;;;;;;;;;7.08;99.83;103226.50;5116244;27;19930;-77
2022/03/27 06:45:05;;;;;;;;;;;;;;;6.91;100.00;103227.72;5107307;28;19912;-76
2022/03/27 06:47:31;;;;;;;;;;;;;;;6.77;100.00;103228.28;5107461;27;19951;-76
2022/03/27 06:49:57;;;;;;;;;;;;;;;6.71;100.00;103222.66;5111262;27;19922;-76
2022/03/27 06:52:23;;;;;;;;;;;;;;;6.69;100.00;103225.09;5109567;27;20392;-76
2022/03/27 06:54:49;;;;;;;;;;;;;;;6.67;100.00;103225.72;5108956;28;20014;-76
2022/03/27 06:57:14;;;;;;;;;;;;;;;6.66;100.00;103229.06;5107731;28;19923;-76
2022/03/27 07:05:09;;;;;;;;;;;;;;;6.60;100.00;103233.69;5108849;27;20057;-75
2022/03/27 07:07:35;;;;;;;;;;;;;;;6.67;100.00;103230.84;5110599;27;19915;-76
2022/03/27 07:10:00;;;;;;;;;;;;;;;6.88;100.00;103227.47;5103414;27;19920;-76
2022/03/27 07:12:26;;;;;;;;;;;;;;;7.11;98.49;103228.44;5105185;28;19920;-75
2022/03/27 07:14:51;;;;;;;;;;;;;;;7.22;98.94;103231.09;5106637;27;20278;-76
2022/03/27 07:17:17;;;;;;;;;;;;;;;7.37;98.07;103228.81;5108693;27;19957;-76
2022/03/27 07:19:45;;;;;;;;;;;;;;;7.41;97.22;103227.41;5109763;27;19962;-76
2022/03/27 07:22:11;;;;;;;;;;;;;;;7.46;96.19;103232.13;5111731;27;20007;-75
2022/03/27 07:24:36;;;;;;;;;;;;;;;7.37;97.00;103226.28;5112355;27;20330;-75
2022/03/27 07:27:02;;;;;;;;;;;;;;;7.34;97.17;103233.72;5111567;27;19915;-73
2022/03/27 07:29:30;;;;;;;;;;;;;;;7.36;96.80;103229.59;5106906;28;19920;-75
2022/03/27 07:31:55;;;;;;;;;;;;;;;7.35;96.94;103227.81;5110161;27;19919;-75
2022/03/27 07:34:21;;;;;;;;;;;;;;;7.35;96.66;103217.59;5106126;28;20285;-75
2022/03/27 07:36:46;;;;;;;;;;;;;;;7.51;96.25;103222.22;5105371;28;20404;-76
2022/03/27 07:39:11;;;;;;;;;;;;;;;7.66;95.10;103225.09;5106655;28;19985;-75
2022/03/27 07:41:37;;;;;;;;;;;;;;;7.77;95.29;103221.69;5103322;28;20237;-74
2022/03/27 07:44:03;;;;;;;;;;;;;;;7.99;92.96;103230.22;5103511;28;19923;-75
2022/03/27 07:46:28;;;;;;;;;;;;;;;7.91;91.88;103227.88;5104733;28;19932;-75
2022/03/27 07:48:53;;;;;;;;;;;;;;;7.71;92.63;103223.78;5104702;28;19965;-75
2022/03/27 07:51:18;;;;;;;;;;;;;;;7.53;93.83;103225.81;5085710;28;19924;-75
2022/03/27 07:53:44;;;;;;;;;;;;;;;7.66;93.91;103222.53;5106799;28;19958;-76
2022/03/27 07:56:09;;;;;;;;;;;;;;;7.83;93.45;103222.16;5102575;28;19955;-75
2022/03/27 07:58:34;;;;;;;;;;;;;;;8.07;92.45;103220.59;5109182;28;19923;-76
2022/03/27 08:01:00;;;;;;;;;;;;;;;8.29;92.53;103225.63;5107454;28;19923;-75
2022/03/27 08:03:26;;;;;;;;;;;;;;;8.48;90.10;103226.25;5107340;28;20266;-76
2022/03/27 08:05:51;;;;;;;;;;;;;;;8.50;89.26;103227.28;5106249;28;19922;-75
2022/03/27 08:08:17;;;;;;;;;;;;;;;8.46;89.86;103227.81;5104212;28;20383;-75
2022/03/27 08:10:43;;;;;;;;;;;;;;;8.54;88.64;103228.38;5101371;28;19931;-77
2022/03/27 08:13:08;;;;;;;;;;;;;;;8.60;88.20;103226.28;5107133;28;19938;-75
2022/03/27 08:15:33;;;;;;;;;;;;;;;8.71;88.52;103222.81;5103459;28;20271;-75
2022/03/27 08:17:59;;;;;;;;;;;;;;;8.92;87.92;103218.38;5103714;28;19923;-75
2022/03/27 08:20:25;;;;;;;;;;;;;;;9.13;88.09;103219.00;5104292;28;20002;-74
2022/03/27 08:22:50;;;;;;;;;;;;;;;9.31;86.29;103216.84;5103680;28;19950;-75
2022/03/27 08:26:55;;;;;;;;;;;;;;;9.46;85.47;103220.50;5100184;28;19924;-74
2022/03/27 08:28:01;;;;;;;;;;;;;;;9.28;82.84;103225.25;5100636;28;19927;-76
2022/03/27 08:30:26;;;;;;;;;;;;;;;8.89;84.52;103218.13;5100625;28;19931;-75
2022/03/27 08:32:51;;;;;;;;;;;;;;;8.70;85.79;103228.75;5099852;28;19950;-76
2022/03/27 08:35:17;;;;;;;;;;;;;;;8.79;85.12;103228.50;5100535;28;19919;-74
2022/03/27 08:37:42;;;;;;;;;;;;;;;8.82;84.73;103231.31;5103241;28;20171;-75
2022/03/27 08:40:08;;;;;;;;;;;;;;;8.55;85.76;103237.84;5103199;28;19923;-76
2022/03/27 08:42:34;;;;;;;;;;;;;;;8.42;87.09;103235.16;5104975;28;19915;-75
2022/03/27 08:44:59;;;;;;;;;;;;;;;8.38;86.51;103238.31;5103260;28;19928;-75
2022/03/27 08:47:25;;;;;;;;;;;;;;;8.68;87.82;103230.31;5104017;28;19924;-75
2022/03/27 08:49:53;;;;;;;;;;;;;;;9.27;82.00;103230.25;5105539;28;19924;-76
2022/03/27 08:52:21;;;;;;;;;;;;;;;9.39;80.99;103224.31;5103844;28;19924;-77
2022/03/27 08:54:54;;;;;;;;;;;;;;;9.52;81.46;103227.72;5106437;28;19939;-75
2022/03/27 08:57:26;;;;;;;;;;;;;;;9.73;80.94;103225.78;5107214;28;19923;-73
2022/03/27 08:59:55;;;;;;;;;;;;;;;10.28;80.70;103227.88;5114663;28;19975;-74
2022/03/27 09:02:23;;;;;;;;;;;;;;;11.14;78.70;103233.47;5112170;28;19943;-74
2022/03/27 09:04:59;;;;;;;;;;;;;;;12.01;75.70;103231.13;5110196;28;19928;-74
2022/03/27 09:07:33;;;;;;;;;;;;;;;13.08;72.23;103227.91;5107250;28;19960;-75
2022/03/27 09:09:58;;;;;;;;;;;;;;;14.08;71.73;103220.31;5107676;28;19924;-75
2022/03/27 09:12:24;;;;;;;;;;;;;;;15.47;67.83;103220.22;5107342;28;19928;-73
2022/03/27 09:14:50;;;;;;;;;;;;;;;16.91;58.28;103215.09;5107669;28;19916;-75
2022/03/27 09:17:16;;;;;;;;;;;;;;;18.13;48.20;103223.13;5109377;28;19916;-75
2022/03/27 09:19:43;;;;;;;;;;;;;;;19.30;45.35;103214.72;5107760;28;19923;-75
2022/03/27 09:22:13;;;;;;;;;;;;;;;20.19;47.31;103207.63;5107241;28;20412;-75
2022/03/27 09:24:38;;;;;;;;;;;;;;;21.95;37.17;103219.38;5106224;28;19935;-75
2022/03/27 09:27:05;;;;;;;;;;;;;;;22.32;36.90;103220.06;5108401;28;19927;-74
2022/03/27 09:29:50;;;;;;;;;;;;;;;21.87;41.38;103216.63;5102641;28;20390;-74
2022/03/27 09:32:24;;;;;;;;;;;;;;;23.40;38.75;103212.91;5107326;28;19924;-75
2022/03/27 09:35:09;;;;;;;;;;;;;;;24.51;36.41;103208.81;5104729;28;20005;-75
2022/03/27 09:37:35;;;;;;;;;;;;;;;25.48;36.38;103199.69;5101892;28;19967;-75
2022/03/27 09:40:02;;;;;;;;;;;;;;;26.28;28.86;103208.59;5106289;28;19927;-75
2022/03/27 09:42:28;;;;;;;;;;;;;;;25.93;30.75;103201.53;5105814;28;19927;-75
2022/03/27 09:45:13;;;;;;;;;;;;;;;24.67;30.50;103195.75;5105400;28;19991;-75
2022/03/27 09:47:38;;;;;;;;;;;;;;;23.69;32.79;103195.78;5107698;28;20340;-75
2022/03/27 09:50:04;;;;;;;;;;;;;;;23.47;32.69;103196.34;5106333;28;20010;-75
2022/03/27 09:52:29;;;;;;;;;;;;;;;23.20;34.28;103183.78;5108555;28;20014;-75
2022/03/27 09:54:55;;;;;;;;;;;;;;;23.75;32.79;103185.31;5108447;28;19923;-75
2022/03/27 09:57:20;;;;;;;;;;;;;;;23.86;32.04;103184.56;5109595;28;20006;-75
2022/03/27 09:59:46;;;;;;;;;;;;;;;24.04;31.96;103180.34;5109093;28;20435;-76
2022/03/27 10:02:21;;;;;;;;;;;;;;;24.29;32.20;103178.78;5109967;28;19999;-75
2022/03/27 10:04:58;;;;;;;;;;;;;;;24.12;33.18;103174.28;5108157;28;19923;-75
2022/03/27 10:07:25;;;;;;;;;;;;;;;24.66;33.22;103171.19;5110453;28;19939;-74
2022/03/27 10:09:51;;;;;;;;;;;;;;;26.11;31.78;103174.31;5108968;28;19927;-74
2022/03/27 10:12:17;;;;;;;;;;;;;;;27.18;27.78;103163.56;5108824;28;19959;-75
2022/03/27 10:14:43;;;;;;;;;;;;;;;25.98;27.85;103162.00;5107470;28;19930;-75
2022/03/27 10:17:10;;;;;;;;;;;;;;;25.13;30.62;103157.44;5109737;28;19924;-74
2022/03/27 10:19:44;;;;;;;;;;;;;;;25.47;30.39;103161.00;5108650;28;20361;-75
2022/03/27 10:22:11;;;;;;;;;;;;;;;26.36;32.49;103148.78;5111295;28;19915;-75
2022/03/27 10:24:38;;;;;;;;;;;;;;;27.98;28.33;103147.19;5107189;28;20312;-74
2022/03/27 10:27:04;;;;;;;;;;;;;;;29.30;28.61;103151.88;5109062;28;20438;-75
2022/03/27 10:29:29;;;;;;;;;;;;;;;29.75;25.79;103147.72;5105236;28;20010;-75
2022/03/27 10:31:56;;;;;;;;;;;;;;;29.27;24.34;103142.22;5105201;28;20418;-73
2022/03/27 10:34:22;;;;;;;;;;;;;;;28.02;27.03;103143.59;5106255;28;20487;-74
2022/03/27 10:36:54;;;;;;;;;;;;;;;28.77;26.46;103138.44;5110772;28;19925;-74
2022/03/27 10:39:29;;;;;;;;;;;;;;;30.12;27.67;103129.41;5111253;28;19961;-74
2022/03/27 10:41:55;;;;;;;;;;;;;;;31.64;23.66;103127.09;5110935;28;20329;-75
2022/03/27 10:44:33;;;;;;;;;;;;;;;30.95;21.29;103122.47;5104948;28;19944;-73
2022/03/27 10:47:10;;;;;;;;;;;;;;;29.66;22.94;103126.63;5106943;28;19926;-75
2022/03/27 10:49:36;;;;;;;;;;;;;;;28.46;26.86;103121.16;5105972;28;19939;-75
2022/03/27 10:52:05;;;;;;;;;;;;;;;28.83;23.70;103118.97;5106865;28;20370;-75
2022/03/27 10:54:30;;;;;;;;;;;;;;;28.77;26.39;103117.25;5104082;28;19912;-74
2022/03/27 10:56:56;;;;;;;;;;;;;;;28.73;23.99;103125.25;5107731;28;19946;-75
2022/03/27 10:59:25;;;;;;;;;;;;;;;28.27;25.72;103116.06;5111584;28;19964;-75
2022/03/27 11:01:51;;;;;;;;;;;;;;;28.77;24.19;103114.63;5108971;28;20413;-75
2022/03/27 11:04:17;;;;;;;;;;;;;;;29.84;23.17;103114.84;5111984;28;20068;-75
2022/03/27 11:06:44;;;;;;;;;;;;;;;30.00;21.43;103105.72;5111284;28;19966;-75
2022/03/27 11:09:12;;;;;;;;;;;;;;;29.99;20.65;103109.28;5103873;28;19923;-75
2022/03/27 11:11:37;;;;;;;;;;;;;;;29.66;22.50;103110.72;5107440;28;19942;-74
2022/03/27 11:14:06;;;;;;;;;;;;;;;30.70;20.95;103107.06;5105693;28;20287;-74
2022/03/27 11:16:33;;;;;;;;;;;;;;;29.61;21.62;103104.66;5106028;28;20328;-75
2022/03/27 11:18:59;;;;;;;;;;;;;;;29.02;22.06;103101.97;5110444;28;20023;-76
2022/03/27 11:21:27;;;;;;;;;;;;;;;28.23;22.51;103095.81;5109768;28;19951;-75
2022/03/27 11:24:15;;;;;;;;;;;;;;;27.51;23.21;103083.19;5106904;28;19915;-76
2022/03/27 11:26:41;;;;;;;;;;;;;;;27.46;23.15;103086.75;5108408;28;20946;-76
2022/03/27 11:29:20;;;;;;;;;;;;;;;27.31;25.19;103087.75;5111341;28;20010;-76
2022/03/27 11:32:02;;;;;;;;;;;;;;;28.83;24.51;103084.53;5108246;28;19923;-75
2022/03/27 11:34:28;;;;;;;;;;;;;;;29.75;21.72;103078.75;5108023;28;20357;-75
2022/03/27 11:37:12;;;;;;;;;;;;;;;29.53;20.23;103083.53;5104669;28;19923;-74
2022/03/27 11:39:38;;;;;;;;;;;;;;;27.34;21.64;103076.28;5106795;28;20014;-75
2022/03/27 11:42:24;;;;;;;;;;;;;;;26.83;22.62;103078.31;5110735;28;19962;-75
2022/03/27 11:45:08;;;;;;;;;;;;;;;26.49;23.31;103069.66;5110896;28;19919;-75
2022/03/27 11:47:44;;;;;;;;;;;;;;;27.56;23.04;103067.31;5104719;28;19919;-75
2022/03/27 11:50:18;;;;;;;;;;;;;;;29.17;21.80;103061.09;5106901;28;19941;-75
2022/03/27 11:52:46;;;;;;;;;;;;;;;30.31;20.94;103058.28;5111128;28;20294;-75
2022/03/27 11:55:12;;;;;;;;;;;;;;;31.33;19.24;103060.50;5110817;28;20374;-75
2022/03/27 11:57:44;;;;;;;;;;;;;;;31.02;19.01;103062.13;5109123;28;19955;-74
2022/03/27 12:00:10;;;;;;;;;;;;;;;29.16;19.67;103058.50;5115141;28;20455;-75
2022/03/27 12:02:40;;;;;;;;;;;;;;;28.41;21.03;103054.19;5112104;28;20043;-75
2022/03/27 12:05:05;;;;;;;;;;;;;;;28.72;21.28;103055.53;5106535;28;20010;-75
2022/03/27 12:07:48;;;;;;;;;;;;;;;28.53;19.83;103048.75;5109673;28;19995;-75
2022/03/27 12:10:13;;;;;;;;;;;;;;;28.30;20.45;103041.03;5100246;28;20027;-75
2022/03/27 12:12:53;;;;;;;;;;;;;;;28.73;21.36;103043.19;5110993;28;20038;-75
2022/03/27 12:15:18;;;;;;;;;;;;;;;29.75;21.69;103025.72;5098464;28;19924;-74
2022/03/27 12:17:44;;;;;;;;;;;;;;;30.72;18.25;103032.69;5109468;28;20301;-75
2022/03/27 12:20:10;;;;;;;;;;;;;;;29.67;18.63;103021.44;5107059;28;19916;-75
2022/03/27 12:22:41;;;;;;;;;;;;;;;27.70;20.57;103022.28;5108249;28;19939;-76
2022/03/27 12:25:28;;;;;;;;;;;;;;;27.50;22.21;103023.31;5103962;28;20003;-75
2022/03/27 12:30:50;;;;;;;;;;;;;;;29.81;18.70;103011.47;5110298;28;19927;-75
2022/03/27 12:33:20;;;;;;;;;;;;;;;30.23;19.97;103006.28;5104894;28;19955;-75
2022/03/27 12:35:47;;;;;;;;;;;;;;;31.06;18.99;103005.31;5106050;28;19926;-76
2022/03/27 12:38:12;;;;;;;;;;;;;;;32.01;18.56;103004.63;5106095;28;19919;-75
2022/03/27 12:40:44;;;;;;;;;;;;;;;31.73;18.58;102990.31;5109467;28;19924;-74
2022/03/27 12:43:11;;;;;;;;;;;;;;;30.38;18.44;102996.19;5101382;28;19912;-76
2022/03/27 12:45:43;;;;;;;;;;;;;;;30.11;19.45;102983.53;5110294;28;20275;-76
2022/03/27 12:48:16;;;;;;;;;;;;;;;29.99;19.10;102986.38;5102653;28;19920;-75
2022/03/27 12:50:46;;;;;;;;;;;;;;;30.08;18.22;102987.06;5108985;28;19926;-76
2022/03/27 12:53:12;;;;;;;;;;;;;;;29.82;18.82;102981.41;5104899;28;20002;-75